Metar Aviation Weather Data EDDG

28°C Temp
17°C Dewpoint
% Humidity
Temperature
13 KM/H
8 MPH
7 KTS
150°
South South
East

Wind Speed
Clear
Conditions
Pressure 1015.92 (hPa) - 30 (in)
Visibility 6.2 (mi) - 10 (km)

Current Conditions
EDDG
Metar :EDDG 120820Z 15007KT 090V170 CAVOK 28/17 Q1016 NOSIG
Wed 12th August 10:20 am

  Metar Aviation API Data Provided by https://www.checkwx.com/ PHP scripts by weather34.com ©2020